Time;durP1;ratioP1;P1;durP2;ratioP2;P2;SDS_P1;SDS_P2;PMS_P1;PMS_P2;Temp;Humidity;BMP_temperature;BMP_pressure;BME280_temperature;BME280_humidity;BME280_pressure;Samples;Min_cycle;Max_cycle;Signal;HPM_P1;HPM_P2
2022/03/06 00:01:04;;;;;;;57.55;29.35;;;2.20;88.60;;;;;;5003936;28;24997;-75
2022/03/06 00:03:30;;;;;;;55.63;28.38;;;2.20;88.60;;;;;;4998693;28;25063;-76
2022/03/06 00:05:56;;;;;;;52.22;27.73;;;2.20;88.80;;;;;;5001023;28;25070;-74
2022/03/06 00:08:21;;;;;;;53.10;26.92;;;2.10;88.90;;;;;;5011531;28;25045;-75
2022/03/06 00:10:48;;;;;;;59.83;30.00;;;2.10;88.80;;;;;;5011845;28;25054;-75
2022/03/06 00:13:14;;;;;;;61.35;29.35;;;2.10;88.80;;;;;;5013072;28;25101;-75
2022/03/06 00:15:41;;;;;;;58.17;29.67;;;2.10;89.10;;;;;;5013247;28;25074;-74
2022/03/06 00:18:07;;;;;;;54.22;28.42;;;2.10;89.40;;;;;;5025185;28;25071;-74
2022/03/06 00:20:32;;;;;;;63.45;29.85;;;2.00;89.50;;;;;;5022288;28;25117;-75
2022/03/06 00:22:58;;;;;;;53.00;28.52;;;2.00;89.80;;;;;;5013242;28;25073;-75
2022/03/06 00:25:23;;;;;;;51.58;26.83;;;2.00;89.80;;;;;;5013798;28;25067;-75
2022/03/06 00:27:49;;;;;;;59.85;29.65;;;1.90;90.00;;;;;;5010889;28;25136;-75
2022/03/06 00:30:15;;;;;;;51.85;30.48;;;1.90;89.90;;;;;;5010661;28;25076;-75
2022/03/06 00:32:41;;;;;;;59.88;30.77;;;1.90;90.20;;;;;;5008656;28;25088;-74
2022/03/06 00:35:08;;;;;;;62.50;35.53;;;1.90;90.10;;;;;;5009993;28;25103;-73
2022/03/06 00:37:34;;;;;;;54.30;27.40;;;1.80;90.20;;;;;;5008957;28;25079;-75
2022/03/06 00:40:00;;;;;;;59.08;28.48;;;1.80;90.30;;;;;;5009109;28;25126;-75
2022/03/06 00:42:25;;;;;;;53.40;27.60;;;1.80;90.20;;;;;;5008107;28;25061;-75
2022/03/06 00:44:52;;;;;;;57.50;32.00;;;1.80;90.30;;;;;;5006724;28;25070;-74
2022/03/06 00:47:18;;;;;;;52.42;26.85;;;1.70;90.40;;;;;;5009826;28;25046;-73
2022/03/06 00:49:43;;;;;;;59.38;28.60;;;1.70;90.60;;;;;;5011099;28;25064;-76
2022/03/06 00:52:09;;;;;;;61.65;30.27;;;1.70;90.60;;;;;;5011611;28;25079;-73
2022/03/06 00:54:35;;;;;;;58.53;28.10;;;1.70;90.60;;;;;;5011098;28;25141;-73
2022/03/06 00:57:00;;;;;;;55.30;30.48;;;1.70;90.70;;;;;;5010943;28;25071;-74
2022/03/06 00:59:32;;;;;;;57.72;30.98;;;1.60;90.90;;;;;;5011189;28;25125;-73
2022/03/06 01:01:59;;;;;;;54.10;27.42;;;1.60;91.10;;;;;;4992996;28;25067;-76
2022/03/06 01:04:25;;;;;;;56.15;29.63;;;1.60;91.20;;;;;;5006814;28;25169;-74
2022/03/06 01:06:51;;;;;;;53.00;27.58;;;1.60;91.20;;;;;;5004613;28;25071;-74
2022/03/06 01:09:17;;;;;;;50.20;27.65;;;1.50;91.20;;;;;;5005092;28;25103;-75
2022/03/06 01:11:43;;;;;;;49.88;28.20;;;1.50;91.30;;;;;;5009683;28;25164;-74
2022/03/06 01:14:08;;;;;;;56.97;27.50;;;1.50;91.30;;;;;;5010997;28;25140;-74
2022/03/06 01:16:34;;;;;;;61.53;31.15;;;1.50;91.50;;;;;;5012426;28;25131;-76
2022/03/06 01:18:59;;;;;;;61.00;28.98;;;1.50;91.60;;;;;;5013154;28;25108;-73
2022/03/06 01:21:25;;;;;;;56.42;28.30;;;1.40;91.60;;;;;;5003976;28;25101;-76
2022/03/06 01:23:52;;;;;;;54.60;26.88;;;1.40;91.70;;;;;;5008756;28;25078;-76
2022/03/06 01:26:19;;;;;;;54.80;32.50;;;1.40;91.70;;;;;;5010670;28;25085;-76
2022/03/06 01:28:44;;;;;;;56.90;27.38;;;1.40;91.80;;;;;;5009950;28;25060;-74
2022/03/06 01:31:10;;;;;;;52.13;25.85;;;1.40;91.80;;;;;;5011201;28;25048;-75
2022/03/06 01:33:36;;;;;;;53.95;27.70;;;1.40;91.80;;;;;;4976428;28;25079;-75
2022/03/06 01:36:02;;;;;;;58.67;28.05;;;1.40;91.80;;;;;;5009860;28;25071;-76
2022/03/06 01:38:27;;;;;;;55.08;26.35;;;1.40;91.80;;;;;;5010404;28;25058;-74
2022/03/06 01:40:53;;;;;;;54.15;28.52;;;1.40;91.70;;;;;;5009841;28;25092;-75
2022/03/06 01:43:18;;;;;;;56.97;28.15;;;1.40;91.90;;;;;;5011108;28;25119;-75
2022/03/06 01:45:44;;;;;;;55.17;28.70;;;1.30;91.80;;;;;;5011505;28;25052;-74
2022/03/06 01:48:10;;;;;;;53.00;27.95;;;1.30;91.80;;;;;;5012349;28;25064;-74
2022/03/06 01:50:36;;;;;;;53.33;28.48;;;1.30;91.80;;;;;;5017389;28;25071;-75
2022/03/06 01:53:05;;;;;;;55.53;28.83;;;1.30;91.80;;;;;;5019253;28;25085;-76
2022/03/06 01:55:33;;;;;;;52.35;27.45;;;1.30;91.90;;;;;;5014707;28;25122;-74
2022/03/06 01:58:01;;;;;;;57.20;27.73;;;1.20;92.00;;;;;;5012194;28;25061;-75
2022/03/06 02:00:34;;;;;;;53.03;25.42;;;1.30;92.10;;;;;;5008672;28;25077;-73
2022/03/06 02:02:59;;;;;;;;;;;1.20;91.90;;;;;;5005199;28;25053;-74
2022/03/06 02:05:25;;;;;;;49.58;24.30;;;1.20;91.90;;;;;;5002137;28;24091;-75
2022/03/06 02:07:51;;;;;;;51.63;25.77;;;1.20;91.90;;;;;;4989256;28;25133;-75
2022/03/06 02:10:17;;;;;;;46.03;25.08;;;1.20;91.90;;;;;;5011620;28;25076;-73
2022/03/06 02:12:43;;;;;;;51.17;26.13;;;1.30;91.80;;;;;;5013503;28;25058;-75
2022/03/06 02:15:10;;;;;;;49.92;26.35;;;1.20;92.00;;;;;;5013352;28;25171;-74
2022/03/06 02:17:37;;;;;;;46.78;25.92;;;1.20;91.80;;;;;;5011148;28;25065;-74
2022/03/06 02:20:06;;;;;;;45.53;24.58;;;1.20;91.90;;;;;;5010991;28;25055;-74
2022/03/06 02:22:34;;;;;;;47.05;25.20;;;1.20;92.00;;;;;;5012906;28;25169;-74
2022/03/06 02:25:02;;;;;;;48.63;24.50;;;1.20;91.90;;;;;;5016825;28;25083;-75
2022/03/06 02:27:28;;;;;;;46.78;24.45;;;1.20;92.00;;;;;;5021444;28;25093;-76
2022/03/06 02:29:54;;;;;;;44.75;23.90;;;1.20;92.00;;;;;;5023222;28;25070;-75
2022/03/06 02:32:22;;;;;;;45.08;23.92;;;1.20;92.00;;;;;;5026773;28;25104;-77
2022/03/06 02:34:49;;;;;;;38.50;22.80;;;1.20;91.90;;;;;;5027323;28;25064;-75
2022/03/06 02:37:16;;;;;;;47.50;26.33;;;1.20;91.70;;;;;;5019884;28;25063;-75
2022/03/06 02:39:43;;;;;;;41.88;24.75;;;1.20;91.40;;;;;;5027172;28;25072;-74
2022/03/06 02:42:10;;;;;;;44.53;24.30;;;1.20;91.50;;;;;;5028392;28;25153;-76
2022/03/06 02:44:36;;;;;;;42.10;22.52;;;1.20;91.50;;;;;;5019414;28;25057;-74
2022/03/06 02:47:03;;;;;;;43.40;23.70;;;1.20;91.40;;;;;;5010986;28;25055;-75
2022/03/06 02:49:29;;;;;;;43.22;22.85;;;1.20;91.30;;;;;;5014350;28;25051;-73
2022/03/06 02:51:55;;;;;;;41.95;22.10;;;1.10;91.30;;;;;;5014249;28;25076;-75
2022/03/06 02:54:21;;;;;;;39.80;22.25;;;1.20;91.30;;;;;;5012236;28;25089;-75
2022/03/06 02:56:47;;;;;;;45.90;21.92;;;1.20;91.00;;;;;;4993463;28;25074;-74
2022/03/06 02:59:13;;;;;;;44.65;23.35;;;1.20;90.90;;;;;;5011373;28;25096;-76
2022/03/06 03:01:41;;;;;;;43.33;23.05;;;1.20;90.70;;;;;;5009617;28;25164;-74
2022/03/06 03:04:08;;;;;;;37.20;21.30;;;1.20;90.50;;;;;;5009485;28;25136;-75
2022/03/06 03:06:34;;;;;;;37.65;21.35;;;1.20;90.70;;;;;;4975145;28;25110;-75
2022/03/06 03:09:02;;;;;;;37.50;21.70;;;1.20;90.80;;;;;;5008742;28;25106;-73
2022/03/06 03:11:29;;;;;;;37.55;21.70;;;1.20;90.70;;;;;;4990919;28;25157;-74
2022/03/06 03:13:54;;;;;;;37.90;21.38;;;1.20;90.80;;;;;;4997271;28;25133;-74
2022/03/06 03:16:20;;;;;;;34.25;20.33;;;1.20;90.80;;;;;;5009073;28;25082;-74
2022/03/06 03:18:45;;;;;;;36.70;20.35;;;1.10;90.70;;;;;;4991082;28;25052;-74
2022/03/06 03:21:11;;;;;;;40.60;20.67;;;1.10;90.70;;;;;;5009340;28;25158;-74
2022/03/06 03:23:37;;;;;;;33.80;21.83;;;1.20;90.60;;;;;;5010326;28;25053;-73
2022/03/06 03:26:02;;;;;;;34.03;20.50;;;1.10;90.50;;;;;;4992193;28;25143;-73
2022/03/06 03:28:28;;;;;;;37.15;19.92;;;1.10;90.60;;;;;;5009171;28;25145;-75
2022/03/06 03:30:53;;;;;;;36.40;21.05;;;1.10;90.80;;;;;;5010643;28;25088;-75
2022/03/06 03:33:19;;;;;;;36.03;20.80;;;1.10;90.80;;;;;;5009518;28;25137;-74
2022/03/06 03:35:44;;;;;;;35.95;21.67;;;1.10;90.70;;;;;;5009809;28;25176;-74
2022/03/06 03:38:10;;;;;;;33.60;21.13;;;1.10;90.80;;;;;;5007934;28;25055;-74
2022/03/06 03:40:35;;;;;;;32.45;20.02;;;1.10;91.00;;;;;;5001411;28;25062;-75
2022/03/06 03:43:01;;;;;;;34.22;20.00;;;1.10;90.90;;;;;;5008316;28;25147;-76
2022/03/06 03:45:26;;;;;;;32.22;20.10;;;1.10;90.80;;;;;;5009037;28;25045;-74
2022/03/06 03:47:52;;;;;;;38.85;22.23;;;1.10;90.60;;;;;;4991475;28;25086;-73
2022/03/06 03:50:18;;;;;;;37.30;21.10;;;1.10;90.50;;;;;;5007957;28;25072;-72
2022/03/06 03:52:43;;;;;;;37.33;21.10;;;1.00;90.60;;;;;;5007686;28;25132;-73
2022/03/06 03:55:09;;;;;;;37.08;20.20;;;0.90;90.80;;;;;;5006764;28;25124;-75
2022/03/06 03:57:35;;;;;;;31.42;18.70;;;0.90;91.00;;;;;;5007492;28;25086;-75
2022/03/06 04:00:00;;;;;;;35.42;19.50;;;0.90;91.10;;;;;;4990367;28;25060;-74
2022/03/06 04:02:26;;;;;;;34.97;19.20;;;0.90;91.20;;;;;;5007905;28;25056;-73
2022/03/06 04:04:51;;;;;;;32.67;20.23;;;0.90;91.10;;;;;;5007436;28;25070;-75
2022/03/06 04:07:17;;;;;;;33.05;19.33;;;0.90;91.20;;;;;;5007343;28;25078;-74
2022/03/06 04:09:43;;;;;;;34.38;18.77;;;0.90;90.90;;;;;;5006516;28;25107;-74
2022/03/06 04:12:09;;;;;;;32.13;19.55;;;0.90;90.90;;;;;;5007792;28;25070;-74
2022/03/06 04:14:34;;;;;;;31.98;20.25;;;0.90;90.90;;;;;;5007257;28;25087;-74
2022/03/06 04:17:00;;;;;;;30.92;19.05;;;0.90;90.70;;;;;;5006941;28;25051;-75
2022/03/06 04:19:26;;;;;;;36.05;20.38;;;0.90;90.70;;;;;;5006418;28;25111;-74
2022/03/06 04:21:53;;;;;;;37.22;19.58;;;0.90;90.60;;;;;;5009902;28;25088;-73
2022/03/06 04:24:18;;;;;;;36.60;19.10;;;0.90;90.50;;;;;;5010899;28;25049;-75
2022/03/06 04:26:44;;;;;;;34.55;20.80;;;0.90;90.30;;;;;;5012216;28;25077;-75
2022/03/06 04:29:10;;;;;;;34.67;19.95;;;0.90;90.20;;;;;;5011522;28;25055;-76
2022/03/06 04:31:36;;;;;;;30.40;19.35;;;0.90;90.30;;;;;;5014132;28;25088;-75
2022/03/06 04:34:02;;;;;;;31.20;20.48;;;0.90;90.30;;;;;;5024008;28;25097;-75
2022/03/06 04:36:28;;;;;;;31.42;20.10;;;0.80;90.20;;;;;;5024373;28;25069;-74
2022/03/06 04:38:54;;;;;;;36.22;20.95;;;0.80;90.20;;;;;;5014910;28;25061;-75
2022/03/06 04:41:20;;;;;;;31.63;19.85;;;0.80;90.10;;;;;;4996232;28;25080;-74
2022/03/06 04:43:45;;;;;;;34.63;20.48;;;0.80;90.10;;;;;;5012530;28;25061;-75
2022/03/06 04:46:11;;;;;;;32.90;21.92;;;0.80;90.00;;;;;;5012021;28;25070;-75
2022/03/06 04:48:37;;;;;;;29.77;20.52;;;0.80;90.20;;;;;;5011683;28;25079;-74
2022/03/06 04:51:04;;;;;;;34.00;21.58;;;0.70;90.20;;;;;;5012767;28;25090;-74
2022/03/06 04:53:31;;;;;;;34.05;19.55;;;0.70;90.20;;;;;;5013247;28;25528;-75
2022/03/06 04:55:56;;;;;;;33.47;20.20;;;0.80;90.30;;;;;;5013477;28;25074;-74
2022/03/06 04:58:22;;;;;;;32.42;21.95;;;0.70;90.00;;;;;;5012905;28;25060;-76
2022/03/06 05:00:47;;;;;;;37.78;22.30;;;0.70;90.30;;;;;;5011613;28;25064;-76
2022/03/06 05:03:15;;;;;;;35.78;22.10;;;0.70;90.40;;;;;;4977346;28;25101;-76
2022/03/06 05:05:40;;;;;;;35.70;21.65;;;0.60;90.20;;;;;;4992854;28;25079;-75
2022/03/06 05:08:06;;;;;;;34.22;22.60;;;0.60;90.30;;;;;;5010847;28;25064;-73
2022/03/06 05:10:31;;;;;;;38.25;22.50;;;0.60;90.20;;;;;;5011854;28;25072;-76
2022/03/06 05:12:57;;;;;;;34.97;21.60;;;0.60;90.30;;;;;;5025147;28;25072;-76
2022/03/06 05:15:23;;;;;;;36.63;23.05;;;0.60;90.30;;;;;;5025530;28;25087;-74
2022/03/06 05:17:48;;;;;;;39.55;22.88;;;0.50;90.30;;;;;;5023275;28;25129;-73
2022/03/06 05:20:14;;;;;;;34.28;22.27;;;0.50;90.50;;;;;;5027456;28;25091;-74
2022/03/06 05:22:40;;;;;;;34.08;22.60;;;0.50;90.60;;;;;;5029666;28;25051;-76
2022/03/06 05:25:08;;;;;;;37.40;23.38;;;0.50;90.70;;;;;;5031169;28;25044;-75
2022/03/06 05:27:33;;;;;;;35.92;23.13;;;0.50;90.70;;;;;;5031587;28;25103;-75
2022/03/06 05:29:59;;;;;;;36.28;23.13;;;0.50;90.50;;;;;;5024841;28;25056;-75
2022/03/06 05:32:25;;;;;;;37.30;23.55;;;0.50;90.30;;;;;;5024827;28;25089;-75
2022/03/06 05:34:50;;;;;;;34.22;23.02;;;0.50;90.20;;;;;;5010868;28;25127;-74
2022/03/06 05:37:16;;;;;;;36.28;23.60;;;0.50;90.10;;;;;;5011134;28;25112;-74
2022/03/06 05:39:42;;;;;;;33.42;23.50;;;0.50;89.90;;;;;;5006150;28;25069;-76
2022/03/06 05:42:08;;;;;;;45.80;25.50;;;0.50;90.00;;;;;;5001703;28;25065;-72
2022/03/06 05:44:34;;;;;;;40.50;23.77;;;0.40;90.30;;;;;;4999706;28;25089;-75
2022/03/06 05:46:59;;;;;;;36.95;23.52;;;0.40;90.10;;;;;;5002295;28;25092;-75
2022/03/06 05:49:25;;;;;;;40.95;26.02;;;0.40;90.10;;;;;;5001779;28;25115;-73
2022/03/06 05:51:50;;;;;;;38.83;23.38;;;0.40;90.10;;;;;;5005630;28;25093;-75
2022/03/06 05:54:16;;;;;;;40.75;25.55;;;0.40;90.10;;;;;;5005692;28;25060;-74
2022/03/06 05:56:41;;;;;;;38.15;24.50;;;0.40;90.20;;;;;;5004964;28;25052;-74
2022/03/06 05:59:07;;;;;;;42.15;25.52;;;0.30;90.30;;;;;;5005293;28;25112;-73
2022/03/06 06:01:33;;;;;;;40.42;24.13;;;0.30;90.30;;;;;;5008802;28;25065;-75
2022/03/06 06:03:59;;;;;;;41.72;25.45;;;0.30;90.40;;;;;;5008472;28;25127;-77
2022/03/06 06:06:26;;;;;;;40.75;25.63;;;0.30;90.40;;;;;;5008291;28;25058;-77
2022/03/06 06:08:52;;;;;;;50.92;25.95;;;0.30;90.50;;;;;;4986002;28;25136;-74
2022/03/06 06:11:18;;;;;;;40.67;24.83;;;0.30;90.60;;;;;;4996475;28;25128;-75
2022/03/06 06:13:44;;;;;;;41.80;25.52;;;0.30;90.60;;;;;;4984119;28;25147;-74
2022/03/06 06:16:09;;;;;;;40.80;25.10;;;0.20;90.70;;;;;;4993623;28;25062;-75
2022/03/06 06:18:35;;;;;;;38.90;24.92;;;0.30;90.70;;;;;;4997249;28;25117;-75
2022/03/06 06:21:01;;;;;;;40.00;25.77;;;0.30;90.60;;;;;;4996705;28;25099;-74
2022/03/06 06:23:27;;;;;;;41.63;24.70;;;0.30;90.70;;;;;;4996992;28;25073;-74
2022/03/06 06:25:52;;;;;;;42.65;26.13;;;0.30;90.60;;;;;;4984167;28;25130;-75
2022/03/06 06:28:18;;;;;;;41.55;26.00;;;0.30;90.60;;;;;;5001448;28;25097;-74
2022/03/06 06:30:43;;;;;;;39.38;25.15;;;0.30;90.60;;;;;;4984603;28;25139;-75
2022/03/06 06:33:09;;;;;;;40.45;26.10;;;0.30;90.70;;;;;;5008321;28;25067;-73
2022/03/06 06:35:34;;;;;;;44.38;26.15;;;0.20;90.60;;;;;;5000348;28;25066;-72
2022/03/06 06:38:03;;;;;;;40.75;25.38;;;0.30;90.60;;;;;;5009313;28;25063;-75
2022/03/06 06:40:30;;;;;;;38.58;26.40;;;0.30;90.60;;;;;;5009639;28;25061;-72
2022/03/06 06:42:55;;;;;;;40.00;24.50;;;0.30;90.50;;;;;;5004350;28;25104;-76
2022/03/06 06:45:21;;;;;;;38.05;24.40;;;0.20;90.60;;;;;;5032547;28;25061;-74
2022/03/06 06:47:47;;;;;;;40.17;26.40;;;0.20;90.60;;;;;;4995673;28;25062;-71
2022/03/06 06:50:12;;;;;;;36.28;24.88;;;0.20;90.70;;;;;;5010651;28;25127;-74
2022/03/06 06:52:38;;;;;;;37.42;23.98;;;0.20;90.70;;;;;;5009756;28;25058;-75
2022/03/06 06:55:05;;;;;;;41.90;24.55;;;0.20;90.80;;;;;;5008639;28;25061;-76
2022/03/06 06:57:32;;;;;;;39.28;25.88;;;0.20;90.80;;;;;;5008332;28;25062;-76
2022/03/06 06:59:58;;;;;;;39.83;26.00;;;0.20;90.80;;;;;;5008973;28;25112;-74
2022/03/06 07:02:23;;;;;;;36.08;24.52;;;0.20;90.90;;;;;;4999570;28;25101;-75
2022/03/06 07:04:49;;;;;;;41.30;25.88;;;0.30;90.80;;;;;;4989336;28;25085;-74
2022/03/06 07:07:15;;;;;;;37.42;24.42;;;0.30;90.90;;;;;;4998961;28;25147;-74
2022/03/06 07:09:40;;;;;;;39.03;25.77;;;0.30;90.90;;;;;;4994952;28;25109;-75
2022/03/06 07:12:06;;;;;;;38.50;27.85;;;0.30;90.90;;;;;;5000813;28;25109;-75
2022/03/06 07:14:32;;;;;;;36.58;24.95;;;0.30;90.90;;;;;;4995883;28;25072;-75
2022/03/06 07:16:58;;;;;;;37.10;24.70;;;0.30;91.10;;;;;;4994245;28;25078;-75
2022/03/06 07:19:24;;;;;;;41.65;28.02;;;0.40;91.00;;;;;;4998316;28;25079;-74
2022/03/06 07:21:49;;;;;;;38.25;24.55;;;0.50;91.00;;;;;;4992647;28;25105;-75
2022/03/06 07:24:15;;;;;;;41.50;25.20;;;0.50;91.00;;;;;;4991942;28;25145;-74
2022/03/06 07:26:41;;;;;;;38.45;25.17;;;0.50;91.00;;;;;;4996319;28;25064;-74
2022/03/06 07:29:07;;;;;;;36.70;24.33;;;0.50;91.10;;;;;;4995114;28;25096;-74
2022/03/06 07:31:33;;;;;;;37.67;24.05;;;0.60;91.10;;;;;;4997157;28;25043;-76
2022/03/06 07:33:59;;;;;;;39.15;27.08;;;0.60;91.10;;;;;;5005191;28;25072;-75
2022/03/06 07:36:24;;;;;;;34.83;23.17;;;0.60;90.90;;;;;;5003913;28;25061;-73
2022/03/06 07:38:50;;;;;;;37.30;23.90;;;0.70;91.00;;;;;;5008164;28;25091;-78
2022/03/06 07:41:17;;;;;;;36.22;24.65;;;0.70;90.90;;;;;;4997001;28;25070;-74
2022/03/06 07:43:43;;;;;;;36.90;24.35;;;0.70;91.00;;;;;;5001222;28;25073;-75
2022/03/06 07:46:08;;;;;;;36.95;23.55;;;0.70;91.10;;;;;;4998985;28;25130;-74
2022/03/06 07:48:34;;;;;;;36.97;24.60;;;0.80;91.10;;;;;;4998230;28;25074;-76
2022/03/06 07:50:59;;;;;;;36.60;23.40;;;0.80;91.10;;;;;;4997616;28;25063;-75
2022/03/06 07:53:25;;;;;;;32.70;21.30;;;0.80;91.20;;;;;;4992529;28;25059;-75
2022/03/06 07:55:50;;;;;;;35.30;21.73;;;0.90;91.20;;;;;;4986524;28;25056;-76
2022/03/06 07:58:16;;;;;;;35.15;23.02;;;1.00;91.10;;;;;;4996000;28;25056;-77
2022/03/06 08:00:41;;;;;;;34.50;22.50;;;1.00;90.90;;;;;;5008675;28;25062;-76
2022/03/06 08:03:07;;;;;;;37.55;23.92;;;1.10;91.00;;;;;;5004483;28;25128;-75
2022/03/06 08:05:33;;;;;;;33.08;19.92;;;1.10;91.10;;;;;;4984974;28;25148;-76
2022/03/06 08:07:58;;;;;;;32.15;21.95;;;1.10;91.10;;;;;;5010628;28;25066;-76
2022/03/06 08:10:24;;;;;;;33.30;21.77;;;1.10;91.10;;;;;;5013019;28;25068;-76
2022/03/06 08:12:50;;;;;;;36.67;21.38;;;1.20;91.00;;;;;;5014220;28;25064;-74
2022/03/06 08:15:16;;;;;;;32.42;22.42;;;1.20;91.10;;;;;;5014251;28;25119;-76
2022/03/06 08:17:41;;;;;;;31.35;21.73;;;1.30;91.10;;;;;;4995708;28;25095;-76
2022/03/06 08:20:08;;;;;;;33.63;19.85;;;1.40;91.00;;;;;;5013578;28;25090;-78
2022/03/06 08:22:34;;;;;;;34.17;21.42;;;1.50;90.90;;;;;;5014048;28;25091;-77
2022/03/06 08:25:00;;;;;;;27.98;20.05;;;1.50;90.60;;;;;;5015526;28;25057;-76
2022/03/06 08:27:26;;;;;;;29.17;20.95;;;1.50;90.70;;;;;;5015668;28;25065;-75
2022/03/06 08:29:52;;;;;;;30.42;19.48;;;1.70;90.40;;;;;;5015263;28;25071;-77
2022/03/06 08:32:17;;;;;;;30.50;19.77;;;1.80;90.40;;;;;;5013307;28;25061;-75
2022/03/06 08:34:44;;;;;;;28.30;19.35;;;1.90;89.90;;;;;;5015074;28;25095;-76
2022/03/06 08:37:10;;;;;;;28.50;19.48;;;1.90;88.80;;;;;;4996678;28;25062;-75
2022/03/06 08:39:36;;;;;;;27.67;19.25;;;1.90;88.50;;;;;;5014110;28;25044;-76
2022/03/06 08:42:02;;;;;;;25.98;18.25;;;2.10;88.30;;;;;;5008789;28;25075;-76
2022/03/06 08:44:27;;;;;;;28.05;18.75;;;2.20;87.30;;;;;;5014359;28;25071;-75
2022/03/06 08:46:53;;;;;;;26.63;18.85;;;2.20;86.50;;;;;;4992840;28;25079;-76
2022/03/06 08:49:19;;;;;;;27.15;16.92;;;2.30;86.20;;;;;;5010612;28;25135;-75
2022/03/06 08:51:45;;;;;;;27.95;17.42;;;2.40;85.70;;;;;;5037089;28;25065;-76
2022/03/06 08:54:10;;;;;;;27.10;17.17;;;2.30;84.60;;;;;;5001866;28;25077;-74
2022/03/06 08:56:36;;;;;;;21.77;16.15;;;2.40;84.80;;;;;;5010133;28;25057;-74
2022/03/06 08:59:02;;;;;;;27.77;16.42;;;2.60;84.40;;;;;;4991899;28;25136;-75
2022/03/06 09:01:27;;;;;;;26.88;16.08;;;2.70;83.70;;;;;;5009917;28;25085;-71
2022/03/06 09:03:53;;;;;;;28.38;18.77;;;2.90;82.00;;;;;;5007514;28;25078;-75
2022/03/06 09:06:19;;;;;;;24.67;17.20;;;2.80;80.60;;;;;;5023211;28;25113;-73
2022/03/06 09:08:44;;;;;;;26.73;16.52;;;2.70;80.60;;;;;;5017611;28;25058;-76
2022/03/06 09:11:10;;;;;;;22.33;14.95;;;2.90;80.50;;;;;;5006875;28;25145;-75
2022/03/06 09:13:36;;;;;;;19.20;14.73;;;3.10;80.80;;;;;;5004368;28;25160;-74
2022/03/06 09:16:04;;;;;;;20.27;14.00;;;3.30;79.50;;;;;;5004168;28;25096;-74
2022/03/06 09:18:30;;;;;;;20.83;14.35;;;3.60;78.20;;;;;;4998863;28;25080;-76
2022/03/06 09:20:56;;;;;;;26.83;15.80;;;3.50;76.50;;;;;;5010022;28;25056;-74
2022/03/06 09:23:21;;;;;;;18.17;13.07;;;3.60;75.90;;;;;;5009537;28;25137;-76
2022/03/06 09:25:47;;;;;;;17.33;12.63;;;3.70;75.60;;;;;;5011435;28;25060;-77
2022/03/06 09:28:13;;;;;;;16.77;12.13;;;3.90;73.60;;;;;;5010427;28;25055;-74
2022/03/06 09:30:38;;;;;;;18.83;12.98;;;4.00;72.00;;;;;;5011082;28;25065;-75
2022/03/06 09:33:04;;;;;;;17.23;11.43;;;4.00;72.20;;;;;;5011333;28;25080;-77
2022/03/06 09:35:31;;;;;;;16.38;11.70;;;4.00;71.40;;;;;;5005487;28;25080;-75
2022/03/06 09:37:57;;;;;;;16.23;10.98;;;3.90;71.00;;;;;;4989270;28;25074;-75
2022/03/06 09:40:22;;;;;;;16.17;11.95;;;4.10;71.90;;;;;;5001978;28;25071;-75
2022/03/06 09:42:49;;;;;;;18.83;10.80;;;4.20;67.20;;;;;;5000407;28;25074;-78
2022/03/06 09:45:15;;;;;;;12.23;10.13;;;4.20;66.30;;;;;;4996020;28;25107;-77
2022/03/06 09:47:44;;;;;;;16.23;10.18;;;4.20;66.30;;;;;;4998552;28;25078;-76
2022/03/06 09:50:12;;;;;;;14.68;10.25;;;4.30;65.00;;;;;;4999128;28;25050;-76
2022/03/06 09:52:37;;;;;;;13.88;10.43;;;4.30;64.30;;;;;;5004387;28;25050;-77
2022/03/06 09:55:04;;;;;;;12.57;8.73;;;4.20;64.10;;;;;;4999955;28;25123;-75
2022/03/06 09:57:30;;;;;;;13.68;10.55;;;4.40;61.70;;;;;;5003978;28;25104;-76
2022/03/06 09:59:55;;;;;;;12.10;8.65;;;4.40;61.50;;;;;;5003225;28;25091;-76
2022/03/06 10:02:21;;;;;;;11.10;7.35;;;4.50;61.00;;;;;;4997395;28;25058;-76
2022/03/06 10:04:47;;;;;;;12.82;7.55;;;4.70;59.10;;;;;;5003040;28;25121;-76
2022/03/06 10:07:15;;;;;;;11.45;8.85;;;4.80;58.00;;;;;;4996894;28;25070;-82
2022/03/06 10:09:51;;;;;;;10.40;7.32;;;4.50;57.30;;;;;;5000321;28;25069;-77
2022/03/06 10:12:32;;;;;;;12.98;7.20;;;4.60;57.90;;;;;;5002176;28;25098;-77
2022/03/06 10:15:03;;;;;;;8.65;6.88;;;4.60;57.20;;;;;;5000888;28;25077;-77
2022/03/06 10:17:31;;;;;;;10.10;7.65;;;4.80;57.10;;;;;;5002399;28;25146;-77
2022/03/06 10:20:05;;;;;;;10.98;6.90;;;4.90;56.60;;;;;;4999518;28;25127;-77
2022/03/06 10:22:41;;;;;;;10.05;7.15;;;5.00;57.00;;;;;;5005393;28;25080;-76
2022/03/06 10:25:13;;;;;;;11.77;7.63;;;5.10;55.00;;;;;;5000755;28;25085;-76
2022/03/06 10:27:49;;;;;;;12.93;7.40;;;5.20;54.50;;;;;;5007611;28;25062;-76
2022/03/06 10:30:32;;;;;;;10.98;6.43;;;5.20;53.80;;;;;;4999906;28;25117;-76
2022/03/06 10:33:01;;;;;;;16.20;7.70;;;5.10;54.30;;;;;;5002143;28;25073;-76
2022/03/06 10:35:37;;;;;;;12.00;6.88;;;5.20;53.50;;;;;;5009244;28;25058;-79
2022/03/06 10:38:20;;;;;;;16.60;7.85;;;5.50;53.60;;;;;;5002158;28;25097;-75
2022/03/06 10:40:46;;;;;;;12.45;7.43;;;5.00;51.00;;;;;;5004073;28;25060;-77
2022/03/06 10:43:17;;;;;;;12.93;7.70;;;5.20;51.80;;;;;;5015980;28;25155;-75
2022/03/06 10:45:42;;;;;;;14.23;8.43;;;5.20;51.10;;;;;;5019326;28;25071;-77
2022/03/06 10:48:09;;;;;;;12.98;7.15;;;5.30;49.80;;;;;;5016653;28;25112;-76
2022/03/06 10:50:35;;;;;;;10.93;7.63;;;5.40;50.90;;;;;;5013417;28;25067;-76
2022/03/06 10:53:00;;;;;;;11.00;7.40;;;5.70;49.40;;;;;;5013165;28;25051;-77
2022/03/06 10:55:36;;;;;;;10.43;7.47;;;5.60;48.00;;;;;;5011182;28;25052;-78
2022/03/06 10:58:03;;;;;;;11.13;8.20;;;5.40;47.80;;;;;;5015442;28;25082;-75
2022/03/06 11:00:32;;;;;;;8.82;6.53;;;5.50;48.20;;;;;;5033537;28;25049;-75
2022/03/06 11:03:03;;;;;;;8.90;7.18;;;5.60;47.70;;;;;;5006218;28;25046;-76
2022/03/06 11:05:30;;;;;;;11.57;7.35;;;5.80;48.40;;;;;;5005485;28;25075;-77
2022/03/06 11:07:55;;;;;;;11.23;7.50;;;5.90;46.90;;;;;;5010419;28;25058;-75
2022/03/06 11:10:21;;;;;;;13.52;7.82;;;5.90;46.80;;;;;;5011222;28;25048;-74
2022/03/06 11:12:47;;;;;;;10.88;7.97;;;5.90;46.70;;;;;;5002753;28;25054;-74
2022/03/06 11:15:13;;;;;;;10.20;7.53;;;6.00;44.40;;;;;;5008888;28;25132;-75
2022/03/06 11:17:39;;;;;;;9.05;6.72;;;6.20;44.90;;;;;;5001077;28;25145;-74
2022/03/06 11:20:06;;;;;;;10.63;8.38;;;6.10;44.60;;;;;;4997715;28;25077;-74
2022/03/06 11:22:47;;;;;;;12.10;7.28;;;6.30;43.40;;;;;;5005979;28;25068;-75
2022/03/06 11:25:17;;;;;;;8.85;7.57;;;6.20;43.00;;;;;;5008861;28;25084;-74
2022/03/06 11:28:01;;;;;;;10.23;7.15;;;6.20;42.40;;;;;;5008837;28;25065;-74
2022/03/06 11:30:27;;;;;;;8.32;6.53;;;6.40;43.80;;;;;;5007846;28;25079;-75
2022/03/06 11:33:07;;;;;;;9.77;6.72;;;6.70;40.70;;;;;;5008853;28;25095;-77
2022/03/06 11:35:51;;;;;;;11.98;6.40;;;6.60;42.20;;;;;;5008718;28;25136;-74
2022/03/06 11:38:17;;;;;;;9.10;6.85;;;6.60;40.60;;;;;;5008144;28;25066;-74
2022/03/06 11:40:49;;;;;;;10.35;7.40;;;6.60;41.10;;;;;;5008324;28;25121;-75
2022/03/06 11:43:38;;;;;;;9.35;6.80;;;6.70;41.90;;;;;;5008362;28;25125;-75
2022/03/06 11:46:17;;;;;;;10.65;7.32;;;6.70;40.70;;;;;;5010821;28;25268;-75
2022/03/06 11:48:46;;;;;;;13.05;8.50;;;6.90;40.50;;;;;;4995058;28;25049;-74
2022/03/06 11:51:30;;;;;;;9.10;6.85;;;6.50;39.20;;;;;;5029616;28;25099;-78
2022/03/06 11:54:03;;;;;;;10.43;7.38;;;6.60;39.40;;;;;;5029898;28;25055;-76
2022/03/06 11:56:34;;;;;;;9.60;7.55;;;6.50;39.30;;;;;;5002306;28;25074;-75
2022/03/06 11:59:19;;;;;;;9.68;7.25;;;6.70;38.80;;;;;;5011200;28;25106;-75
2022/03/06 12:01:46;;;;;;;9.77;6.88;;;6.40;38.70;;;;;;5009880;28;25060;-74
2022/03/06 12:04:16;;;;;;;12.85;8.52;;;6.70;38.40;;;;;;5009600;28;25067;-75
2022/03/06 12:07:00;;;;;;;10.57;7.57;;;6.60;37.60;;;;;;5006231;28;25083;-76
2022/03/06 12:09:37;;;;;;;9.70;7.13;;;6.80;37.00;;;;;;5003989;28;25065;-76
2022/03/06 12:12:08;;;;;;;10.55;7.45;;;6.80;36.60;;;;;;5002562;28;25060;-75
2022/03/06 12:14:37;;;;;;;9.57;7.53;;;7.00;36.20;;;;;;5007416;28;25070;-75
2022/03/06 12:17:11;;;;;;;11.55;8.48;;;7.50;34.30;;;;;;5008432;28;25091;-77
2022/03/06 12:19:45;;;;;;;10.50;7.32;;;6.80;35.30;;;;;;4999604;28;25059;-74
2022/03/06 12:22:10;;;;;;;9.80;7.75;;;6.90;36.40;;;;;;5006415;28;25067;-73
2022/03/06 12:24:37;;;;;;;11.13;6.88;;;6.80;36.00;;;;;;5008299;28;25073;-77
2022/03/06 12:27:11;;;;;;;10.40;6.53;;;7.20;35.90;;;;;;5005082;28;25066;-72
2022/03/06 12:29:46;;;;;;;12.25;8.27;;;7.40;34.90;;;;;;5002492;28;25064;-73
2022/03/06 12:32:31;;;;;;;9.55;6.85;;;6.50;36.50;;;;;;5004601;28;25121;-75
2022/03/06 12:35:03;;;;;;;9.07;6.90;;;6.90;36.90;;;;;;4999657;28;25089;-75
2022/03/06 12:37:54;;;;;;;10.30;7.82;;;7.40;36.20;;;;;;4993893;28;25095;-77
2022/03/06 12:40:22;;;;;;;11.88;8.00;;;7.00;33.80;;;;;;4995269;28;25152;-75